Time;durP1;ratioP1;P1;durP2;ratioP2;P2;SDS_P1;SDS_P2;PMS_P1;PMS_P2;Temp;Humidity;BMP_temperature;BMP_pressure;BME280_temperature;BME280_humidity;BME280_pressure;Samples;Min_cycle;Max_cycle;Signal;HPM_P1;HPM_P2
2021/05/15 00:01:07;;;;;;;3.80;1.30;;;9.60;97.20;;;;;;5059550;28;20396;-44
2021/05/15 00:03:33;;;;;;;2.00;1.17;;;9.50;97.60;;;;;;5059293;28;20162;-44
2021/05/15 00:05:59;;;;;;;1.17;0.90;;;9.50;97.20;;;;;;5059472;28;20730;-45
2021/05/15 00:08:24;;;;;;;1.70;1.13;;;9.40;97.20;;;;;;5058326;28;20443;-43
2021/05/15 00:10:51;;;;;;;1.47;1.10;;;9.50;96.90;;;;;;5059155;28;20201;-43
2021/05/15 00:13:18;;;;;;;2.00;1.10;;;9.50;96.70;;;;;;5059143;28;20524;-44
2021/05/15 00:15:43;;;;;;;2.33;1.20;;;9.50;96.70;;;;;;5058531;28;20413;-44
2021/05/15 00:18:09;;;;;;;2.73;1.40;;;9.50;96.60;;;;;;5092173;28;20436;-45
2021/05/15 00:20:35;;;;;;;3.23;0.97;;;9.50;96.60;;;;;;5091705;28;20416;-44
2021/05/15 00:23:01;;;;;;;1.97;0.80;;;9.50;96.60;;;;;;5091512;28;20472;-44
2021/05/15 00:25:27;;;;;;;3.07;1.30;;;9.50;96.50;;;;;;5059220;28;20408;-44
2021/05/15 00:27:52;;;;;;;1.10;0.90;;;9.50;96.40;;;;;;5059097;28;20447;-45
2021/05/15 00:30:18;;;;;;;1.23;1.00;;;9.50;96.30;;;;;;5058924;28;20233;-45
2021/05/15 00:32:45;;;;;;;2.30;1.00;;;9.50;96.20;;;;;;5057951;28;20174;-43
2021/05/15 00:35:12;;;;;;;1.50;1.30;;;9.50;96.10;;;;;;5074791;28;20419;-45
2021/05/15 00:37:37;;;;;;;1.30;1.07;;;9.50;96.20;;;;;;5059147;28;20455;-45
2021/05/15 00:40:06;;;;;;;1.87;0.90;;;9.40;96.40;;;;;;5059513;28;20498;-45
2021/05/15 00:42:33;;;;;;;2.13;1.30;;;9.40;96.50;;;;;;5057693;28;20486;-45
2021/05/15 00:44:59;;;;;;;1.60;1.10;;;9.30;96.70;;;;;;5059310;28;20515;-43
2021/05/15 00:47:24;;;;;;;1.90;1.00;;;9.30;96.70;;;;;;5059267;28;20452;-45
2021/05/15 00:49:51;;;;;;;1.40;1.00;;;9.30;96.70;;;;;;5058740;28;20205;-44
2021/05/15 00:52:18;;;;;;;1.47;1.37;;;9.30;96.70;;;;;;5059223;28;20280;-43
2021/05/15 00:54:44;;;;;;;1.40;0.90;;;9.20;96.80;;;;;;5058764;28;20752;-44
2021/05/15 00:57:11;;;;;;;1.60;1.33;;;9.30;96.70;;;;;;5058863;28;20522;-44
2021/05/15 00:59:37;;;;;;;2.03;1.10;;;9.30;96.50;;;;;;5058874;28;20412;-44
2021/05/15 01:02:04;;;;;;;2.80;1.17;;;9.30;96.60;;;;;;5058487;28;20710;-45
2021/05/15 01:04:30;;;;;;;1.30;1.20;;;9.40;96.50;;;;;;5058665;28;20841;-43
2021/05/15 01:06:55;;;;;;;2.20;1.13;;;9.20;96.70;;;;;;5058391;28;20412;-44
2021/05/15 01:09:21;;;;;;;2.10;1.40;;;9.20;96.90;;;;;;5091061;28;20470;-45
2021/05/15 01:11:48;;;;;;;1.60;1.20;;;9.10;97.00;;;;;;5058660;28;20166;-44
2021/05/15 01:14:14;;;;;;;1.77;1.10;;;9.10;97.10;;;;;;5058200;28;20159;-44
2021/05/15 01:16:40;;;;;;;1.30;1.17;;;9.00;97.20;;;;;;5057884;28;20718;-44
2021/05/15 01:19:06;;;;;;;1.47;1.27;;;9.00;97.30;;;;;;5057854;28;20884;-44
2021/05/15 01:21:33;;;;;;;1.70;1.27;;;9.00;97.30;;;;;;5057891;28;20408;-43
2021/05/15 01:23:59;;;;;;;1.27;1.10;;;9.00;97.40;;;;;;5057973;28;20246;-44
2021/05/15 01:26:27;;;;;;;1.70;1.17;;;9.00;97.40;;;;;;5058205;28;20907;-43
2021/05/15 01:29:05;;;;;;;1.67;1.10;;;8.90;97.50;;;;;;5058132;28;20236;-44
2021/05/15 01:31:32;;;;;;;2.83;1.40;;;8.90;97.50;;;;;;5090758;28;20431;-44
2021/05/15 01:33:58;;;;;;;3.00;1.30;;;8.90;97.60;;;;;;5058037;28;20860;-44
2021/05/15 01:36:25;;;;;;;2.40;1.27;;;8.90;97.70;;;;;;5057668;28;20404;-45
2021/05/15 01:38:51;;;;;;;1.90;1.10;;;8.80;97.70;;;;;;5057773;28;20864;-45
2021/05/15 01:41:18;;;;;;;1.40;1.07;;;8.80;97.80;;;;;;5056174;28;20428;-44
2021/05/15 01:43:44;;;;;;;1.60;1.20;;;8.80;97.80;;;;;;5056484;28;20440;-44
2021/05/15 01:46:11;;;;;;;1.40;1.30;;;8.90;97.80;;;;;;5057725;28;20404;-44
2021/05/15 01:48:38;;;;;;;2.57;1.40;;;8.80;97.90;;;;;;5057333;28;20526;-43
2021/05/15 01:51:11;;;;;;;3.50;1.30;;;8.80;98.00;;;;;;5057601;28;20409;-44
2021/05/15 01:53:40;;;;;;;1.30;0.93;;;8.70;98.10;;;;;;5057761;28;20420;-44
2021/05/15 01:56:08;;;;;;;1.73;1.43;;;8.70;98.10;;;;;;5057529;28;20771;-44
2021/05/15 01:58:57;;;;;;;3.13;1.60;;;8.60;98.30;;;;;;5058258;28;20436;-44
2021/05/15 02:01:27;;;;;;;1.50;1.13;;;8.70;98.30;;;;;;5057492;28;20822;-44
2021/05/15 02:03:53;;;;;;;1.13;1.00;;;8.60;98.40;;;;;;5057376;28;20747;-44
2021/05/15 02:06:19;;;;;;;1.63;1.53;;;8.60;98.50;;;;;;5089771;28;20404;-44
2021/05/15 02:08:49;;;;;;;1.90;1.43;;;8.60;98.50;;;;;;5057288;28;20680;-43
2021/05/15 02:11:17;;;;;;;1.70;1.10;;;8.60;98.50;;;;;;5058065;28;20174;-44
2021/05/15 02:13:47;;;;;;;2.90;1.20;;;8.50;98.50;;;;;;5057333;28;20428;-45
2021/05/15 02:16:13;;;;;;;1.63;1.30;;;8.50;98.70;;;;;;5057009;28;20719;-44
2021/05/15 02:18:39;;;;;;;1.30;1.20;;;8.50;98.80;;;;;;5057200;28;20493;-44
2021/05/15 02:21:05;;;;;;;2.30;1.50;;;8.50;98.80;;;;;;5057167;28;20416;-44
2021/05/15 02:23:31;;;;;;;2.47;1.43;;;8.50;98.80;;;;;;5057187;28;20249;-45
2021/05/15 02:25:57;;;;;;;3.47;1.30;;;8.40;99.00;;;;;;5056860;28;20474;-44
2021/05/15 02:28:23;;;;;;;1.90;1.40;;;8.50;99.00;;;;;;5056044;28;20448;-43
2021/05/15 02:30:49;;;;;;;3.03;1.63;;;8.60;99.00;;;;;;5056394;28;20216;-43
2021/05/15 02:33:15;;;;;;;1.90;1.50;;;8.50;99.00;;;;;;5089847;28;20263;-42
2021/05/15 02:35:41;;;;;;;2.47;1.50;;;8.50;99.00;;;;;;5056953;28;20412;-43
2021/05/15 02:38:10;;;;;;;2.40;1.50;;;8.50;99.10;;;;;;5056929;28;20435;-43
2021/05/15 02:40:37;;;;;;;1.47;1.23;;;8.50;99.10;;;;;;5057154;28;20614;-42
2021/05/15 02:43:02;;;;;;;1.87;1.57;;;8.40;99.20;;;;;;5056695;28;20439;-43
2021/05/15 02:45:28;;;;;;;1.30;1.00;;;8.40;99.30;;;;;;5056661;28;20419;-43
2021/05/15 02:47:54;;;;;;;2.30;1.00;;;8.40;99.20;;;;;;5055558;28;20185;-44
2021/05/15 02:50:21;;;;;;;2.10;1.70;;;8.30;99.20;;;;;;5055101;28;20213;-43
2021/05/15 02:52:47;;;;;;;2.10;1.50;;;8.20;99.30;;;;;;5055497;28;20174;-43
2021/05/15 02:55:15;;;;;;;1.77;1.53;;;8.20;99.40;;;;;;5055342;28;20412;-43
2021/05/15 02:57:41;;;;;;;2.30;1.33;;;8.10;99.40;;;;;;5055664;28;20221;-43
2021/05/15 03:00:09;;;;;;;1.83;1.40;;;8.10;99.50;;;;;;5055364;28;20481;-43
2021/05/15 03:02:35;;;;;;;1.50;1.30;;;8.00;99.60;;;;;;5056085;28;20512;-43
2021/05/15 03:05:05;;;;;;;4.33;1.73;;;8.00;99.70;;;;;;5057066;28;20519;-43
2021/05/15 03:07:31;;;;;;;2.33;1.77;;;8.00;99.80;;;;;;5055434;28;20877;-43
2021/05/15 03:09:56;;;;;;;1.80;1.53;;;8.00;99.70;;;;;;5056635;28;20463;-43
2021/05/15 03:12:22;;;;;;;2.87;2.20;;;7.90;99.70;;;;;;5056586;28;20190;-43
2021/05/15 03:14:48;;;;;;;1.63;1.30;;;7.90;99.70;;;;;;5056670;28;20184;-43
2021/05/15 03:17:13;;;;;;;1.90;1.60;;;7.90;99.90;;;;;;5056493;28;20251;-43
2021/05/15 03:19:39;;;;;;;1.40;1.30;;;7.90;99.80;;;;;;5056494;28;20572;-42
2021/05/15 03:22:05;;;;;;;3.17;2.00;;;7.80;99.80;;;;;;5088751;28;20216;-43
2021/05/15 03:24:32;;;;;;;1.93;1.67;;;7.80;99.90;;;;;;5055400;28;20780;-44
2021/05/15 03:26:58;;;;;;;1.73;1.47;;;7.80;99.90;;;;;;5055978;28;20427;-43
2021/05/15 03:29:25;;;;;;;5.50;2.10;;;7.70;99.90;;;;;;5054705;28;20471;-44
2021/05/15 03:31:51;;;;;;;2.43;1.73;;;7.80;99.90;;;;;;5055467;28;20440;-43
2021/05/15 03:34:17;;;;;;;3.37;1.53;;;7.80;99.90;;;;;;5087514;28;20447;-43
2021/05/15 03:36:43;;;;;;;2.07;1.63;;;7.80;99.90;;;;;;5055012;28;20204;-44
2021/05/15 03:39:09;;;;;;;1.60;1.40;;;7.80;99.90;;;;;;5054679;28;20826;-44
2021/05/15 03:41:34;;;;;;;2.50;1.70;;;7.80;99.90;;;;;;5054203;28;20475;-43
2021/05/15 03:44:00;;;;;;;2.60;1.70;;;7.80;99.90;;;;;;5060104;28;20254;-43
2021/05/15 03:46:26;;;;;;;1.67;1.43;;;7.80;99.90;;;;;;5060176;28;20200;-43
2021/05/15 03:48:52;;;;;;;3.37;1.60;;;7.80;99.90;;;;;;5060060;28;20197;-43
2021/05/15 03:51:17;;;;;;;2.00;1.80;;;7.80;99.90;;;;;;5059806;28;20166;-43
2021/05/15 03:53:43;;;;;;;6.00;2.20;;;7.80;99.90;;;;;;5059754;28;20185;-43
2021/05/15 03:56:10;;;;;;;4.33;2.00;;;7.80;99.90;;;;;;5059626;28;20517;-43
2021/05/15 03:58:36;;;;;;;3.03;2.03;;;7.80;99.90;;;;;;5059439;28;20205;-43
2021/05/15 04:01:01;;;;;;;5.23;1.93;;;7.90;99.90;;;;;;5059493;28;20412;-43
2021/05/15 04:03:27;;;;;;;1.90;1.60;;;8.00;99.90;;;;;;5059199;28;20189;-41
2021/05/15 04:05:53;;;;;;;2.30;1.80;;;8.00;99.90;;;;;;5059302;28;20499;-44
2021/05/15 04:08:18;;;;;;;1.80;1.57;;;8.00;99.90;;;;;;5059412;28;20445;-42
2021/05/15 04:10:44;;;;;;;6.27;2.00;;;8.20;99.90;;;;;;5059446;28;20607;-44
2021/05/15 04:18:49;;;;;;;2.50;1.67;;;8.20;99.70;;;;;;5086893;28;20722;-43
2021/05/15 04:21:15;;;;;;;2.00;1.77;;;8.20;99.80;;;;;;5058773;28;20412;-43
2021/05/15 04:23:41;;;;;;;3.10;1.83;;;8.30;99.70;;;;;;5091721;28;20486;-43
2021/05/15 04:26:07;;;;;;;2.10;1.70;;;8.30;99.60;;;;;;5059050;28;20408;-43
2021/05/15 04:28:34;;;;;;;1.93;1.57;;;8.40;99.50;;;;;;5091407;28;20182;-43
2021/05/15 04:30:59;;;;;;;2.13;1.40;;;8.40;99.20;;;;;;5091416;28;20464;-44
2021/05/15 04:33:26;;;;;;;2.77;1.30;;;8.50;99.20;;;;;;5058646;28;20687;-43
2021/05/15 04:35:54;;;;;;;1.43;1.33;;;8.50;99.20;;;;;;5092056;28;20192;-44
2021/05/15 04:38:20;;;;;;;4.90;1.30;;;8.50;99.00;;;;;;5059127;28;20794;-43
2021/05/15 04:40:46;;;;;;;2.00;1.50;;;8.50;99.00;;;;;;5058539;28;20519;-43
2021/05/15 04:43:14;;;;;;;3.90;1.87;;;8.60;98.80;;;;;;5058851;28;20186;-44
2021/05/15 04:45:41;;;;;;;1.97;1.70;;;8.60;98.70;;;;;;5057957;28;20460;-43
2021/05/15 04:48:08;;;;;;;3.40;1.50;;;8.60;98.90;;;;;;5059052;28;20460;-44
2021/05/15 04:50:35;;;;;;;2.10;1.30;;;8.60;98.90;;;;;;5058648;28;20609;-44
2021/05/15 04:53:02;;;;;;;2.97;1.50;;;8.60;98.80;;;;;;5059173;28;20424;-44
2021/05/15 04:55:29;;;;;;;4.67;1.50;;;8.70;98.70;;;;;;5057648;28;20419;-44
2021/05/15 04:57:57;;;;;;;3.77;1.60;;;8.90;98.30;;;;;;5056986;28;20435;-44
2021/05/15 05:00:23;;;;;;;2.37;1.57;;;9.00;98.20;;;;;;5057516;28;20420;-43
2021/05/15 05:02:49;;;;;;;3.13;1.60;;;9.00;97.80;;;;;;5057271;28;20424;-43
2021/05/15 05:05:15;;;;;;;2.50;1.57;;;9.10;97.90;;;;;;5057497;28;20264;-44
2021/05/15 05:07:42;;;;;;;3.03;2.43;;;9.10;97.70;;;;;;5057338;28;20455;-43
2021/05/15 05:10:09;;;;;;;4.33;1.70;;;9.10;97.70;;;;;;5057966;28;20592;-45
2021/05/15 05:12:37;;;;;;;3.83;1.43;;;9.30;97.70;;;;;;5058473;28;20444;-44
2021/05/15 05:15:04;;;;;;;4.10;1.43;;;9.60;97.70;;;;;;5091541;28;20456;-45
2021/05/15 05:17:30;;;;;;;2.50;1.50;;;9.80;97.10;;;;;;5041162;28;20463;-44
2021/05/15 05:19:56;;;;;;;1.80;1.10;;;9.90;96.30;;;;;;5058349;28;20440;-44
2021/05/15 05:22:21;;;;;;;1.70;1.50;;;9.80;96.50;;;;;;5057986;28;20177;-45
2021/05/15 05:24:47;;;;;;;2.70;1.40;;;10.10;95.80;;;;;;5058808;28;20197;-44
2021/05/15 05:27:20;;;;;;;2.43;1.17;;;10.30;95.30;;;;;;5058795;28;20468;-44
2021/05/15 05:29:46;;;;;;;1.97;1.30;;;10.50;95.00;;;;;;5056701;28;20937;-45
2021/05/15 05:32:12;;;;;;;2.13;1.10;;;10.70;94.20;;;;;;5090532;28;20408;-44
2021/05/15 05:34:39;;;;;;;1.40;1.10;;;10.80;93.80;;;;;;5058250;28;20750;-45
2021/05/15 05:37:05;;;;;;;1.33;1.00;;;10.70;93.90;;;;;;5057543;28;20424;-45
2021/05/15 05:39:32;;;;;;;1.67;1.30;;;10.70;93.90;;;;;;5057623;28;20462;-43
2021/05/15 05:41:59;;;;;;;2.87;1.40;;;10.50;93.80;;;;;;5057448;28;20425;-43
2021/05/15 05:44:25;;;;;;;2.17;1.33;;;10.30;94.30;;;;;;5057938;28;20823;-45
2021/05/15 05:46:51;;;;;;;2.40;1.50;;;10.30;94.70;;;;;;5057073;28;20808;-42
2021/05/15 05:49:17;;;;;;;3.03;1.67;;;10.20;94.80;;;;;;5057764;28;20567;-44
2021/05/15 05:51:43;;;;;;;3.90;2.87;;;10.30;94.90;;;;;;5057610;28;20181;-44
2021/05/15 05:54:08;;;;;;;2.13;1.20;;;10.30;94.90;;;;;;5057323;28;20189;-44
2021/05/15 05:56:34;;;;;;;1.43;1.10;;;10.30;95.00;;;;;;5057861;28;20178;-44
2021/05/15 05:59:00;;;;;;;3.17;1.43;;;10.30;95.00;;;;;;5090313;28;20368;-44
2021/05/15 06:01:27;;;;;;;3.63;1.17;;;10.20;94.60;;;;;;5056652;28;20440;-44
2021/05/15 06:03:52;;;;;;;1.80;1.30;;;10.30;94.30;;;;;;5055965;28;20742;-45
2021/05/15 06:06:19;;;;;;;1.90;1.00;;;10.50;94.60;;;;;;5055633;28;20408;-44
2021/05/15 06:08:45;;;;;;;1.27;0.87;;;10.60;93.90;;;;;;5055862;28;20439;-43
2021/05/15 06:11:11;;;;;;;1.57;1.17;;;10.80;93.90;;;;;;5056173;28;20499;-45
2021/05/15 06:13:37;;;;;;;1.83;1.40;;;11.00;93.10;;;;;;5056359;28;20528;-44
2021/05/15 06:16:03;;;;;;;1.00;0.70;;;11.10;93.00;;;;;;5056844;28;20412;-44
2021/05/15 06:18:29;;;;;;;1.10;1.00;;;11.20;92.90;;;;;;5055634;28;20178;-45
2021/05/15 06:20:56;;;;;;;2.80;0.80;;;11.10;92.80;;;;;;5057054;28;20412;-43
2021/05/15 06:23:22;;;;;;;1.50;1.10;;;11.50;92.90;;;;;;5089057;28;20700;-43
2021/05/15 06:25:49;;;;;;;2.47;1.10;;;11.80;92.10;;;;;;5088345;28;20419;-45
2021/05/15 06:28:15;;;;;;;1.50;1.23;;;12.00;92.10;;;;;;5087038;28;20444;-44
2021/05/15 06:30:41;;;;;;;2.17;1.03;;;12.40;91.80;;;;;;5055425;28;20463;-44
2021/05/15 06:33:07;;;;;;;1.80;1.10;;;12.70;91.00;;;;;;5088479;28;20428;-44
2021/05/15 06:35:33;;;;;;;1.30;1.00;;;12.90;90.50;;;;;;5055803;28;20423;-43
2021/05/15 06:37:59;;;;;;;1.03;0.80;;;12.40;90.70;;;;;;5056376;28;20181;-43
2021/05/15 06:40:25;;;;;;;1.07;0.80;;;12.20;90.80;;;;;;5056790;28;20424;-43
2021/05/15 06:42:51;;;;;;;1.27;1.13;;;12.40;91.30;;;;;;5056542;28;20431;-42
2021/05/15 06:45:16;;;;;;;1.30;1.00;;;12.80;90.80;;;;;;5054782;28;20551;-43
2021/05/15 06:47:42;;;;;;;2.00;0.93;;;12.60;90.50;;;;;;5056875;28;20229;-43
2021/05/15 06:50:09;;;;;;;1.90;1.20;;;12.50;91.00;;;;;;5055502;28;20467;-43
2021/05/15 06:52:35;;;;;;;1.87;1.17;;;12.20;90.90;;;;;;5056280;28;20200;-43
2021/05/15 06:55:02;;;;;;;1.50;1.13;;;12.40;90.80;;;;;;5056580;28;20939;-41
2021/05/15 06:57:27;;;;;;;2.33;1.10;;;12.10;91.00;;;;;;5056183;28;20412;-43
2021/05/15 06:59:53;;;;;;;2.30;1.20;;;12.00;91.20;;;;;;5057257;28;20447;-43
2021/05/15 07:02:19;;;;;;;1.50;1.23;;;11.70;91.40;;;;;;5056465;28;20638;-43
2021/05/15 07:04:45;;;;;;;1.80;1.40;;;11.60;91.90;;;;;;5057094;28;20193;-44
2021/05/15 07:07:12;;;;;;;2.30;1.40;;;11.70;92.10;;;;;;5057113;28;20204;-42
2021/05/15 07:09:38;;;;;;;1.70;1.10;;;11.50;92.60;;;;;;5057030;28;20468;-42
2021/05/15 07:12:04;;;;;;;1.40;0.90;;;11.70;92.70;;;;;;5056434;28;20435;-41
2021/05/15 07:14:29;;;;;;;1.93;0.97;;;12.00;92.20;;;;;;5087959;28;20181;-43
2021/05/15 07:16:55;;;;;;;1.50;1.10;;;12.20;92.00;;;;;;5057214;28;20419;-41
2021/05/15 07:19:21;;;;;;;1.40;1.17;;;12.20;91.60;;;;;;5060434;28;20185;-42
2021/05/15 07:21:47;;;;;;;2.80;1.47;;;12.00;92.20;;;;;;5059887;28;20237;-44
2021/05/15 07:24:12;;;;;;;1.50;1.20;;;11.90;92.40;;;;;;5060324;28;20230;-43
2021/05/15 07:26:38;;;;;;;2.80;1.30;;;12.10;92.30;;;;;;5075837;28;20491;-42
2021/05/15 07:29:04;;;;;;;1.23;1.00;;;12.10;92.10;;;;;;5059600;28;20194;-41
2021/05/15 07:31:32;;;;;;;1.37;1.07;;;12.10;92.40;;;;;;5091861;28;20181;-43
2021/05/15 07:33:58;;;;;;;1.53;1.10;;;12.50;91.70;;;;;;5059167;28;20434;-40
2021/05/15 07:36:24;;;;;;;1.27;0.93;;;12.70;91.00;;;;;;5059107;28;20507;-43
2021/05/15 07:38:49;;;;;;;1.27;1.07;;;12.80;90.80;;;;;;5091506;28;20178;-42
2021/05/15 07:41:16;;;;;;;1.60;1.20;;;12.90;90.70;;;;;;5058909;28;20477;-42
2021/05/15 07:43:42;;;;;;;2.73;1.30;;;12.70;90.10;;;;;;5059321;28;20178;-42
2021/05/15 07:46:08;;;;;;;2.13;0.90;;;12.50;90.20;;;;;;5074889;28;20435;-42
2021/05/15 07:48:40;;;;;;;2.83;0.90;;;12.30;90.10;;;;;;5090294;28;20421;-42
2021/05/15 07:51:07;;;;;;;1.90;1.13;;;12.60;90.30;;;;;;5089300;28;20474;-42
2021/05/15 07:53:34;;;;;;;2.40;1.10;;;12.60;88.80;;;;;;5058893;28;20550;-43
2021/05/15 07:55:59;;;;;;;1.67;1.30;;;12.60;89.10;;;;;;5057976;28;20420;-42
2021/05/15 07:58:25;;;;;;;1.33;0.97;;;12.70;89.70;;;;;;5058259;28;20854;-44
2021/05/15 08:00:51;;;;;;;1.60;1.07;;;13.10;88.80;;;;;;5090289;28;20181;-43
2021/05/15 08:03:17;;;;;;;2.40;1.50;;;12.80;88.50;;;;;;5091985;28;20498;-42
2021/05/15 08:05:42;;;;;;;1.63;1.20;;;12.60;89.50;;;;;;5059230;28;20200;-36
2021/05/15 08:08:08;;;;;;;2.50;1.30;;;12.80;88.30;;;;;;5058482;28;20566;-37
2021/05/15 08:10:34;;;;;;;4.23;1.10;;;12.80;88.30;;;;;;5058604;28;20501;-36
2021/05/15 08:13:00;;;;;;;1.47;0.97;;;13.00;89.30;;;;;;5057600;28;20182;-36
2021/05/15 08:15:27;;;;;;;2.27;1.13;;;13.20;88.60;;;;;;5071767;28;20250;-36
2021/05/15 08:17:53;;;;;;;4.90;1.13;;;13.40;87.70;;;;;;5038395;28;20432;-37
2021/05/15 08:20:20;;;;;;;1.93;0.90;;;13.40;87.50;;;;;;5070744;28;20432;-37
2021/05/15 08:22:46;;;;;;;1.60;1.10;;;13.20;87.10;;;;;;5036950;28;20551;-37
2021/05/15 08:25:13;;;;;;;1.33;1.03;;;13.10;87.00;;;;;;5070081;28;20417;-37
2021/05/15 08:27:40;;;;;;;2.73;1.30;;;13.10;88.30;;;;;;5038871;28;20170;-39
2021/05/15 08:30:16;;;;;;;3.87;1.23;;;13.30;88.50;;;;;;5037586;28;20464;-37
2021/05/15 08:32:42;;;;;;;1.73;1.23;;;13.40;87.20;;;;;;5037462;28;20482;-37
2021/05/15 08:35:08;;;;;;;1.50;1.30;;;13.60;88.00;;;;;;5038858;28;20417;-37
2021/05/15 08:37:34;;;;;;;2.90;1.37;;;13.40;86.80;;;;;;5038838;28;20186;-37
2021/05/15 08:40:00;;;;;;;1.90;1.00;;;13.30;87.00;;;;;;5037566;28;20425;-37
2021/05/15 08:42:25;;;;;;;1.50;1.10;;;13.30;87.00;;;;;;5038992;28;20179;-37
2021/05/15 08:44:51;;;;;;;1.90;1.40;;;13.20;87.20;;;;;;5071196;28;20181;-37
2021/05/15 08:47:19;;;;;;;3.53;1.30;;;13.20;88.00;;;;;;5039602;28;20467;-36
2021/05/15 08:49:45;;;;;;;1.80;1.20;;;13.30;88.30;;;;;;5036821;28;20635;-36
2021/05/15 08:52:12;;;;;;;2.17;1.30;;;13.60;88.00;;;;;;5037656;28;20428;-37
2021/05/15 08:54:38;;;;;;;1.73;1.10;;;13.80;87.40;;;;;;5036531;28;20518;-36
2021/05/15 08:57:04;;;;;;;1.97;1.37;;;13.80;86.30;;;;;;5037936;28;20436;-36
2021/05/15 08:59:30;;;;;;;3.90;1.43;;;13.60;86.20;;;;;;5038849;28;20424;-36
2021/05/15 09:01:56;;;;;;;2.50;1.40;;;13.80;86.70;;;;;;5039441;28;20861;-36
2021/05/15 09:04:23;;;;;;;2.13;1.83;;;14.10;86.00;;;;;;5038650;28;20175;-37
2021/05/15 09:06:49;;;;;;;3.13;1.30;;;14.20;85.00;;;;;;5039270;28;20423;-36
2021/05/15 09:09:15;;;;;;;2.37;1.50;;;14.20;83.80;;;;;;5038707;28;20469;-37
2021/05/15 09:11:40;;;;;;;2.30;1.20;;;14.10;84.00;;;;;;5038114;28;20185;-37
2021/05/15 09:14:17;;;;;;;3.50;1.30;;;14.30;84.30;;;;;;5038254;28;20425;-37
2021/05/15 09:16:48;;;;;;;3.60;1.50;;;14.40;83.50;;;;;;5037624;28;20177;-37
2021/05/15 09:19:35;;;;;;;1.57;1.10;;;14.40;84.20;;;;;;5036976;28;20436;-37
2021/05/15 09:22:03;;;;;;;4.23;1.10;;;14.80;82.40;;;;;;5035575;28;20432;-37
2021/05/15 09:24:38;;;;;;;2.33;1.30;;;14.60;83.20;;;;;;5035580;28;20883;-37
2021/05/15 09:27:08;;;;;;;1.87;1.53;;;15.30;82.20;;;;;;5035922;28;20413;-37
2021/05/15 09:29:48;;;;;;;2.07;1.10;;;15.90;81.50;;;;;;5035261;28;20535;-36
2021/05/15 09:32:15;;;;;;;2.20;1.20;;;16.90;78.50;;;;;;5035645;28;20574;-37
2021/05/15 09:34:49;;;;;;;1.83;1.33;;;16.10;77.30;;;;;;5067642;28;20432;-37
2021/05/15 09:37:37;;;;;;;2.00;1.60;;;16.00;76.60;;;;;;5067406;28;20995;-37
2021/05/15 09:40:11;;;;;;;2.83;1.83;;;15.90;78.10;;;;;;5034875;28;20436;-37
2021/05/15 09:42:51;;;;;;;2.20;1.53;;;15.60;77.70;;;;;;5035660;28;20708;-37
2021/05/15 09:45:28;;;;;;;3.70;1.50;;;16.00;77.60;;;;;;5069951;28;20449;-37
2021/05/15 09:48:01;;;;;;;4.33;1.60;;;15.80;75.70;;;;;;5056652;28;20400;-36
2021/05/15 09:50:40;;;;;;;3.10;1.63;;;15.80;77.30;;;;;;5055503;28;20476;-37
2021/05/15 09:53:14;;;;;;;2.70;1.57;;;15.70;77.60;;;;;;5054396;28;20806;-34
2021/05/15 09:55:42;;;;;;;3.00;1.80;;;16.40;78.20;;;;;;5088530;28;20428;-36
2021/05/15 09:58:09;;;;;;;3.37;1.43;;;16.90;75.00;;;;;;5056414;28;20412;-35
2021/05/15 10:00:43;;;;;;;2.07;1.20;;;16.40;73.20;;;;;;5088632;28;20439;-35
2021/05/15 10:03:25;;;;;;;2.70;1.43;;;16.20;73.20;;;;;;5056695;28;20435;-36
2021/05/15 10:06:01;;;;;;;3.27;2.37;;;15.70;74.70;;;;;;5055722;28;20715;-36
2021/05/15 10:08:27;;;;;;;2.70;1.80;;;15.40;74.20;;;;;;5090387;28;20442;-35
2021/05/15 10:10:53;;;;;;;2.00;1.37;;;15.00;75.70;;;;;;5056938;28;20567;-35
2021/05/15 10:13:22;;;;;;;4.83;1.70;;;15.00;75.90;;;;;;5057749;28;20408;-35
2021/05/15 10:15:48;;;;;;;2.70;1.10;;;15.10;76.20;;;;;;5057848;28;20420;-36
2021/05/15 10:18:15;;;;;;;1.83;1.40;;;15.50;76.00;;;;;;5056742;28;20419;-35
2021/05/15 10:20:41;;;;;;;2.00;1.20;;;15.60;74.40;;;;;;5056632;28;20445;-36
2021/05/15 10:23:31;;;;;;;2.03;1.00;;;15.60;73.00;;;;;;5055682;28;20460;-36
2021/05/15 10:26:03;;;;;;;3.10;0.80;;;16.20;70.00;;;;;;5088625;28;20573;-36
2021/05/15 10:28:32;;;;;;;2.13;1.33;;;16.40;67.60;;;;;;5057012;28;20415;-36
2021/05/15 10:31:16;;;;;;;1.93;1.23;;;17.20;67.60;;;;;;5055129;28;20487;-36
2021/05/15 10:33:48;;;;;;;1.53;1.30;;;16.20;65.90;;;;;;5089270;28;20833;-37
2021/05/15 10:36:24;;;;;;;1.73;1.53;;;16.90;66.10;;;;;;5056913;28;20814;-36
2021/05/15 10:38:53;;;;;;;1.90;1.53;;;16.40;65.80;;;;;;5056314;28;20860;-36
2021/05/15 10:41:25;;;;;;;1.57;1.10;;;16.70;65.60;;;;;;5055901;28;20462;-35
2021/05/15 10:43:51;;;;;;;10.43;2.03;;;16.50;67.50;;;;;;5055952;28;20412;-36
2021/05/15 10:46:31;;;;;;;3.10;1.40;;;16.70;65.90;;;;;;5089168;28;20412;-35
2021/05/15 10:48:56;;;;;;;3.10;1.97;;;16.40;64.60;;;;;;5056051;28;20424;-37
2021/05/15 10:51:31;;;;;;;6.63;1.67;;;15.80;66.10;;;;;;5057119;28;20744;-36
2021/05/15 10:53:58;;;;;;;2.80;1.20;;;15.80;68.60;;;;;;5060412;28;20243;-35
2021/05/15 10:56:31;;;;;;;1.90;1.10;;;15.40;69.90;;;;;;5060413;28;20473;-33
2021/05/15 10:59:11;;;;;;;6.80;1.47;;;15.30;69.00;;;;;;5092852;28;20485;-35
2021/05/15 11:01:51;;;;;;;1.87;1.20;;;15.00;70.00;;;;;;5060418;28;20411;-34
2021/05/15 11:04:26;;;;;;;3.97;1.33;;;15.30;69.80;;;;;;5058834;28;20527;-34
2021/05/15 11:07:11;;;;;;;2.67;0.80;;;15.40;69.10;;;;;;5058617;28;20432;-36
2021/05/15 11:09:39;;;;;;;2.33;1.00;;;15.80;68.00;;;;;;5092217;28;20478;-34
2021/05/15 11:12:16;;;;;;;4.93;1.30;;;15.80;68.00;;;;;;5092573;28;20416;-36
2021/05/15 11:14:46;;;;;;;5.50;1.67;;;16.20;67.20;;;;;;5060608;28;20416;-36
2021/05/15 11:17:25;;;;;;;4.97;1.40;;;16.00;65.10;;;;;;5091840;28;20498;-36
2021/05/15 11:19:58;;;;;;;2.50;1.03;;;16.40;65.60;;;;;;5092279;28;20427;-36
2021/05/15 11:22:39;;;;;;;3.60;1.33;;;16.20;64.50;;;;;;5060197;28;20404;-36
2021/05/15 11:25:15;;;;;;;2.23;1.23;;;16.30;63.80;;;;;;5059930;28;20825;-35
2021/05/15 11:27:57;;;;;;;1.50;1.00;;;16.00;64.80;;;;;;5060683;28;20407;-35
2021/05/15 11:30:33;;;;;;;2.80;1.47;;;15.80;64.20;;;;;;5060674;28;20475;-37
2021/05/15 11:33:02;;;;;;;2.37;1.17;;;16.20;65.80;;;;;;5093290;28;20509;-36
2021/05/15 11:35:29;;;;;;;4.57;0.97;;;16.90;65.90;;;;;;5058841;28;20435;-35
2021/05/15 11:38:04;;;;;;;2.57;1.10;;;17.40;64.80;;;;;;5059903;28;20450;-35
2021/05/15 11:40:32;;;;;;;2.20;1.10;;;17.70;62.10;;;;;;5058772;28;20484;-35
2021/05/15 11:42:57;;;;;;;2.93;1.00;;;17.80;61.00;;;;;;5058681;28;20417;-35
2021/05/15 11:45:25;;;;;;;2.67;1.27;;;18.20;60.70;;;;;;5058455;28;20443;-34
2021/05/15 11:47:51;;;;;;;2.90;1.60;;;18.50;60.00;;;;;;5056267;28;20182;-35
2021/05/15 11:50:16;;;;;;;3.43;1.30;;;18.50;59.10;;;;;;5090246;28;20480;-36
2021/05/15 11:52:44;;;;;;;2.90;1.20;;;18.50;59.80;;;;;;5090295;28;20452;-36
2021/05/15 11:55:10;;;;;;;1.30;0.90;;;18.40;58.40;;;;;;5059235;28;20170;-35
2021/05/15 11:57:35;;;;;;;1.80;1.10;;;18.00;58.50;;;;;;5058652;28;20674;-35
2021/05/15 12:00:09;;;;;;;3.67;1.13;;;17.50;58.70;;;;;;5058644;28;20515;-35
2021/05/15 12:02:43;;;;;;;2.60;0.83;;;16.80;58.40;;;;;;5059350;28;20184;-35
2021/05/15 12:05:17;;;;;;;2.07;1.00;;;16.80;60.40;;;;;;5057535;28;20458;-35
2021/05/15 12:07:51;;;;;;;1.90;1.10;;;17.10;59.90;;;;;;5057712;28;20442;-35
2021/05/15 12:10:22;;;;;;;2.73;0.90;;;17.40;61.40;;;;;;5090686;28;20471;-35
2021/05/15 12:12:58;;;;;;;2.40;0.90;;;17.40;59.90;;;;;;5057268;28;20506;-34
2021/05/15 12:15:25;;;;;;;1.60;1.00;;;17.90;59.50;;;;;;5057594;28;20603;-35
2021/05/15 12:17:51;;;;;;;2.30;1.00;;;18.30;59.20;;;;;;5056980;28;20416;-35
2021/05/15 12:20:33;;;;;;;2.27;1.00;;;18.30;59.70;;;;;;5090212;28;20428;-34
2021/05/15 12:23:22;;;;;;;2.20;1.30;;;17.90;58.00;;;;;;5057720;28;20464;-34
2021/05/15 12:26:01;;;;;;;2.53;1.10;;;17.80;57.90;;;;;;5058592;28;20424;-35
2021/05/15 12:28:31;;;;;;;1.77;1.10;;;17.10;58.90;;;;;;5057300;28;20416;-35
2021/05/15 12:31:01;;;;;;;1.40;1.20;;;17.20;59.40;;;;;;5058270;28;20912;-35
2021/05/15 12:33:28;;;;;;;1.73;0.93;;;17.10;59.60;;;;;;5058094;28;20443;-35
2021/05/15 12:36:01;;;;;;;2.70;1.77;;;17.20;59.70;;;;;;5059187;28;20420;-35
2021/05/15 12:38:28;;;;;;;3.47;1.47;;;17.30;59.70;;;;;;5091415;28;20491;-35
2021/05/15 12:41:08;;;;;;;2.20;1.20;;;17.10;59.20;;;;;;5060275;28;20865;-34
2021/05/15 12:43:33;;;;;;;1.80;1.00;;;16.70;60.50;;;;;;5059217;28;20415;-35
2021/05/15 12:46:10;;;;;;;2.70;1.20;;;16.80;60.60;;;;;;5059213;28;20443;-36
2021/05/15 12:48:39;;;;;;;2.13;1.23;;;16.80;60.70;;;;;;5058394;28;20204;-35
2021/05/15 12:51:12;;;;;;;3.73;1.10;;;17.10;61.90;;;;;;5059018;28;20506;-35
2021/05/15 12:53:38;;;;;;;2.43;1.40;;;17.50;60.30;;;;;;5058006;28;20495;-35
2021/05/15 12:56:05;;;;;;;5.33;1.17;;;17.80;59.40;;;;;;5047455;28;20468;-34
2021/05/15 12:58:31;;;;;;;2.80;1.30;;;18.10;59.30;;;;;;5039828;28;20424;-34
2021/05/15 13:00:59;;;;;;;2.03;1.40;;;17.90;59.00;;;;;;5041640;28;20488;-35